Etusivu
METAR-TAF:

METAR-TAF

Lentoasemat :

Hiroshima, Japani

Leveyspiiri: 34-26N, Pituuspiiri: 132-55E, korkeus merenpinnasta: 331 m

Tämänhetkinen sää

Tämä raportti tehtiin 15 minuuttia sitten, kello 21.10 UTC
Tuuli 13 kn lännestä/luoteesta
Lämpötila 8°C
Kosteus 57%
Ilmanpaine 1017 hPa
Näkyvyys 10 km tai enemmän
Muutamia pilviä 2000 ft:n korkeudessa
Hajanaisia pilviä 3000 ft:n korkeudessa

METAR: RJOA 182110Z 30013KT 9999 FEW020 SCT030 08/M00 Q1017 RMK 1CU020 4CU030 A3004

Aika: 06:25 (21:25 UTC)

Sääennuste

Tämä raportti tehtiin 4 tuntia ja 18 minuuttia sitten, kello 17.07 UTC
Ennuste voimassa 18. päivästä klo 18 UTC - 20. päivään klo 00 UTC
Tuuli 12 kn luoteesta
Näkyvyys 10 km tai enemmän
Muutamia pilviä 2000 ft:n korkeudessa
Hajonneita pilviä 3000 ft:n korkeudessa
Tulossa
19. päivästä klo 15 UTC - 19. päivään klo 18 UTC
Tuuli 4 kn lännestä/lounaasta

TAF: RJOA 181707Z 1818/2000 32012KT 9999 FEW020 BKN030 BECMG 1915/1918 25004KT

Säähavainnot ja -ennusteet yli 4000 lentoasemalta (METAR- ja TAF-raportit).

Käytössä olevat sääasemat on merkitty karttaan keltaisilla ja punaisilla pisteillä.

Aseta hiiri pisteen päälle nähdäksesi sääaseman nimen.

Klikkaa sitten nähdäksesi säähavainnot ja -ennusteet.

Kartan vaihtaminen: klikkaa mustalla rastilla varustettuja vihreitä pisteitä, niin voit zoomata sisään; viivalla varustettua vihreää pistettä, niin voit zoomata ulos tai vihreitä nuolia, niin pääset viereisille kartoille.


METAR-TAF: